createdAt,value
2023-03-26T00:00:43.237Z,4.90
2023-03-26T00:03:29.858Z,5.20
2023-03-26T00:06:05.382Z,4.60
2023-03-26T00:08:31.831Z,4.80
2023-03-26T00:11:00.023Z,5.40
2023-03-26T00:13:27.870Z,5.70
2023-03-26T00:15:55.371Z,6.40
2023-03-26T00:18:30.066Z,4.20
2023-03-26T00:20:58.028Z,5.90
2023-03-26T00:23:28.241Z,6.10
2023-03-26T00:25:55.607Z,6.40
2023-03-26T00:28:23.100Z,5.10
2023-03-26T00:33:19.643Z,3.90
2023-03-26T00:35:46.674Z,6.10
2023-03-26T00:38:14.125Z,3.20
2023-03-26T00:40:47.403Z,5.30
2023-03-26T00:43:19.690Z,5.60
2023-03-26T00:45:47.398Z,4.90
2023-03-26T00:48:14.898Z,4.40
2023-03-26T00:50:42.337Z,5.10
2023-03-26T00:53:11.727Z,3.90
2023-03-26T00:55:38.563Z,4.00
2023-03-26T00:58:04.991Z,4.00
2023-03-26T01:00:34.321Z,4.30
2023-03-26T01:03:01.325Z,4.80
2023-03-26T01:05:34.207Z,3.90
2023-03-26T01:08:23.271Z,4.30
2023-03-26T01:10:52.308Z,6.00
2023-03-26T01:13:20.484Z,6.00
2023-03-26T01:15:51.160Z,2.80
2023-03-26T01:18:20.103Z,3.90
2023-03-26T01:20:49.197Z,5.50
2023-03-26T01:23:21.488Z,4.10
2023-03-26T01:25:52.287Z,5.30
2023-03-26T01:28:19.944Z,6.40
2023-03-26T01:30:51.314Z,4.30
2023-03-26T01:33:22.448Z,4.10
2023-03-26T01:35:50.435Z,2.60
2023-03-26T01:38:22.824Z,3.90
2023-03-26T01:40:54.083Z,5.40
2023-03-26T01:43:25.527Z,2.90
2023-03-26T01:45:53.233Z,4.10
2023-03-26T01:48:20.383Z,4.10
2023-03-26T01:50:48.578Z,3.50
2023-03-26T01:53:15.176Z,4.00
2023-03-26T01:55:48.843Z,4.30
2023-03-26T01:58:18.524Z,4.30
2023-03-26T02:00:49.576Z,3.20
2023-03-26T02:03:18.836Z,7.30
2023-03-26T02:05:58.750Z,3.20
2023-03-26T02:08:34.990Z,5.40
2023-03-26T02:11:12.371Z,5.00
2023-03-26T02:13:40.237Z,3.70
2023-03-26T02:16:08.298Z,3.80
2023-03-26T02:18:38.440Z,3.80
2023-03-26T02:21:11.601Z,5.10
2023-03-26T02:23:40.730Z,3.50
2023-03-26T02:26:08.772Z,4.30
2023-03-26T02:28:35.830Z,3.60
2023-03-26T02:31:02.851Z,5.10
2023-03-26T02:33:29.953Z,2.70
2023-03-26T02:36:01.314Z,3.90
2023-03-26T02:38:28.628Z,4.60
2023-03-26T02:40:55.192Z,5.70
2023-03-26T02:43:21.749Z,5.90
2023-03-26T02:45:48.186Z,4.10
2023-03-26T02:48:14.559Z,7.00
2023-03-26T02:50:41.429Z,5.20
2023-03-26T02:53:07.854Z,4.50
2023-03-26T02:55:34.412Z,6.20
2023-03-26T02:58:00.931Z,4.40
2023-03-26T03:00:28.351Z,3.20
2023-03-26T03:05:28.088Z,4.50
2023-03-26T03:07:57.467Z,4.00
2023-03-26T03:10:24.594Z,5.60
2023-03-26T03:12:51.010Z,6.30
2023-03-26T03:15:17.429Z,5.40
2023-03-26T03:17:43.961Z,4.60
2023-03-26T03:20:13.332Z,3.50
2023-03-26T03:22:40.125Z,3.80
2023-03-26T03:25:13.771Z,4.90
2023-03-26T03:27:42.140Z,4.60
2023-03-26T03:30:10.585Z,3.30
2023-03-26T03:32:37.462Z,3.50
2023-03-26T03:35:04.273Z,5.90
2023-03-26T03:37:30.680Z,4.90
2023-03-26T03:39:57.144Z,4.30
2023-03-26T03:42:23.561Z,6.40
2023-03-26T03:44:52.474Z,3.30
2023-03-26T03:47:19.745Z,2.60
2023-03-26T03:49:46.014Z,4.60
2023-03-26T03:52:12.290Z,4.60
2023-03-26T03:54:38.749Z,6.30
2023-03-26T03:57:05.060Z,3.80
2023-03-26T03:59:31.585Z,6.80
2023-03-26T04:01:58.367Z,4.50
2023-03-26T04:04:25.000Z,4.90
2023-03-26T04:06:53.229Z,4.40
2023-03-26T04:09:19.694Z,2.90
2023-03-26T04:11:46.058Z,3.40
2023-03-26T04:14:12.395Z,4.90
2023-03-26T04:16:38.877Z,4.50
2023-03-26T04:19:05.342Z,5.30
2023-03-26T04:21:31.885Z,7.00
2023-03-26T04:24:01.064Z,4.80
2023-03-26T04:26:30.205Z,3.90
2023-03-26T04:28:59.310Z,3.30
2023-03-26T04:31:28.559Z,3.40
2023-03-26T04:33:59.481Z,3.80
2023-03-26T04:36:27.729Z,3.00
2023-03-26T04:38:54.995Z,3.40
2023-03-26T04:43:56.150Z,5.10
2023-03-26T04:46:22.904Z,5.40
2023-03-26T04:48:50.023Z,3.10
2023-03-26T04:51:21.858Z,3.70
2023-03-26T04:53:52.672Z,1.30
2023-03-26T04:56:25.315Z,4.20
2023-03-26T04:58:56.357Z,3.60
2023-03-26T05:01:23.830Z,4.10
2023-03-26T05:06:17.160Z,5.80
2023-03-26T05:08:43.492Z,2.20
2023-03-26T05:11:11.089Z,2.40
2023-03-26T05:13:38.077Z,4.60
2023-03-26T05:16:05.029Z,2.70
2023-03-26T05:23:25.602Z,2.20
2023-03-26T05:25:52.576Z,2.00
2023-03-26T05:30:46.664Z,4.70
2023-03-26T05:33:13.340Z,2.40
2023-03-26T05:35:39.988Z,1.40
2023-03-26T05:38:07.557Z,3.50
2023-03-26T05:40:34.476Z,4.20
2023-03-26T05:43:01.021Z,1.60
2023-03-26T05:45:27.620Z,4.10
2023-03-26T05:47:55.811Z,2.10
2023-03-26T05:50:23.870Z,2.60
2023-03-26T05:52:50.548Z,3.40
2023-03-26T05:55:17.833Z,2.10
2023-03-26T06:00:11.611Z,3.60
2023-03-26T06:07:33.356Z,2.70
2023-03-26T06:10:00.353Z,3.80
2023-03-26T06:12:26.740Z,2.30
2023-03-26T06:14:53.785Z,4.10
2023-03-26T06:17:20.362Z,2.70
2023-03-26T06:19:47.515Z,3.30
2023-03-26T06:22:14.222Z,3.10
2023-03-26T06:24:40.563Z,2.70
2023-03-26T06:27:07.167Z,2.60
2023-03-26T06:29:33.827Z,7.40
2023-03-26T06:32:12.486Z,2.60
2023-03-26T06:34:45.622Z,4.00
2023-03-26T06:37:14.894Z,3.50
2023-03-26T06:39:41.554Z,2.50
2023-03-26T06:42:08.196Z,4.90
2023-03-26T06:44:35.417Z,2.90
2023-03-26T06:47:02.697Z,3.20
2023-03-26T06:49:29.844Z,3.00
2023-03-26T06:51:59.041Z,3.50
2023-03-26T06:56:53.671Z,3.50
2023-03-26T06:59:20.595Z,4.40
2023-03-26T07:01:48.059Z,5.20
2023-03-26T07:04:14.970Z,2.70
2023-03-26T07:06:41.524Z,5.20
2023-03-26T07:09:08.240Z,3.80
2023-03-26T07:11:35.210Z,2.90
2023-03-26T07:14:01.868Z,4.80
2023-03-26T07:16:28.644Z,4.50
2023-03-26T07:18:55.436Z,4.40
2023-03-26T07:21:22.518Z,3.70
2023-03-26T07:23:49.318Z,4.70
2023-03-26T07:26:19.049Z,3.40
2023-03-26T07:29:03.706Z,3.70
2023-03-26T07:31:44.836Z,2.90
2023-03-26T07:34:31.251Z,2.70
2023-03-26T07:37:04.248Z,4.20
2023-03-26T07:39:43.368Z,4.00
2023-03-26T07:42:28.944Z,1.90
2023-03-26T07:44:58.685Z,3.60
2023-03-26T07:47:30.948Z,4.20
2023-03-26T07:49:58.170Z,3.50
2023-03-26T07:52:25.369Z,4.60
2023-03-26T07:54:52.325Z,3.60
2023-03-26T07:57:33.440Z,3.20
2023-03-26T08:00:11.349Z,4.50
2023-03-26T08:02:56.499Z,4.00
2023-03-26T08:05:26.777Z,3.40
2023-03-26T08:07:56.394Z,3.10
2023-03-26T08:10:26.379Z,3.60
2023-03-26T08:12:59.982Z,2.00
2023-03-26T08:15:37.373Z,2.50
2023-03-26T08:18:12.006Z,4.10
2023-03-26T08:20:47.203Z,2.30
2023-03-26T08:23:22.950Z,5.30
2023-03-26T08:25:52.417Z,2.70
2023-03-26T08:28:30.277Z,3.80
2023-03-26T08:30:57.314Z,4.00
2023-03-26T08:33:26.444Z,3.30
2023-03-26T08:35:53.354Z,4.90
2023-03-26T08:38:20.227Z,3.90
2023-03-26T08:41:18.466Z,4.00
2023-03-26T08:43:50.603Z,3.20
2023-03-26T08:46:30.165Z,2.70
2023-03-26T08:49:09.709Z,6.40
2023-03-26T08:51:54.223Z,8.60
2023-03-26T08:54:31.034Z,4.40
2023-03-26T08:57:18.674Z,6.10
2023-03-26T08:59:56.874Z,8.50
2023-03-26T09:02:23.499Z,6.20
2023-03-26T09:05:03.354Z,4.80
2023-03-26T09:07:43.537Z,3.20
2023-03-26T09:10:28.901Z,3.20
2023-03-26T09:13:10.734Z,5.10
2023-03-26T09:15:46.785Z,5.20
2023-03-26T09:18:33.098Z,3.80
2023-03-26T09:21:22.817Z,4.90
2023-03-26T09:24:08.992Z,4.10
2023-03-26T09:26:36.625Z,4.00
2023-03-26T09:29:13.125Z,4.00
2023-03-26T09:31:43.006Z,4.40
2023-03-26T09:34:09.529Z,4.20
2023-03-26T09:36:55.126Z,4.80
2023-03-26T09:39:21.680Z,4.50
2023-03-26T09:41:55.993Z,4.60
2023-03-26T09:44:31.463Z,4.90
2023-03-26T09:47:09.431Z,4.30
2023-03-26T09:49:58.143Z,4.20
2023-03-26T09:52:43.621Z,4.70
2023-03-26T09:55:21.025Z,4.30
2023-03-26T09:57:50.783Z,3.80
2023-03-26T10:00:17.345Z,5.30
2023-03-26T10:02:47.581Z,5.90
2023-03-26T10:05:22.258Z,4.90
2023-03-26T10:07:56.658Z,2.90
2023-03-26T10:10:26.694Z,3.80
2023-03-26T10:13:14.060Z,3.10
2023-03-26T10:15:56.940Z,3.00
2023-03-26T10:18:32.952Z,4.90
2023-03-26T10:21:06.169Z,4.10
2023-03-26T10:23:39.128Z,3.10
2023-03-26T10:26:21.091Z,3.10
2023-03-26T10:28:51.050Z,4.50
2023-03-26T10:31:20.665Z,7.10
2023-03-26T10:33:49.316Z,3.30
2023-03-26T10:36:18.563Z,4.90
2023-03-26T10:38:56.793Z,4.20
2023-03-26T10:41:23.620Z,2.50
2023-03-26T10:44:07.440Z,4.10
2023-03-26T10:46:54.046Z,1.80
2023-03-26T10:49:29.673Z,2.80
2023-03-26T10:52:01.560Z,2.30
2023-03-26T10:54:46.608Z,2.80
2023-03-26T10:57:16.100Z,2.80
2023-03-26T10:59:42.612Z,2.70
2023-03-26T11:02:20.996Z,4.00
2023-03-26T11:04:56.469Z,2.20
2023-03-26T11:07:47.391Z,3.40
2023-03-26T11:10:36.585Z,4.00
2023-03-26T11:13:09.063Z,3.90
2023-03-26T11:15:37.874Z,3.90
2023-03-26T11:18:10.506Z,4.30
2023-03-26T11:20:40.940Z,2.50
2023-03-26T11:23:23.339Z,5.60
2023-03-26T11:26:05.688Z,5.00
2023-03-26T11:28:35.651Z,4.30
2023-03-26T11:31:14.258Z,2.90
2023-03-26T11:33:47.148Z,4.20
2023-03-26T11:36:22.203Z,4.40
2023-03-26T11:38:50.362Z,4.00
2023-03-26T11:41:22.785Z,4.10
2023-03-26T11:43:53.857Z,3.60
2023-03-26T11:46:22.337Z,5.10
2023-03-26T11:48:52.151Z,4.50
2023-03-26T11:51:36.449Z,2.60
2023-03-26T11:54:04.617Z,4.50
2023-03-26T11:56:34.575Z,2.50
2023-03-26T11:59:05.067Z,0.90
2023-03-26T12:01:43.590Z,5.40
2023-03-26T12:04:12.944Z,3.40
2023-03-26T12:06:49.625Z,2.60
2023-03-26T12:09:18.733Z,3.10
2023-03-26T12:11:53.554Z,3.30
2023-03-26T12:14:22.861Z,4.60
2023-03-26T12:17:08.336Z,4.70
2023-03-26T12:19:42.443Z,2.80
2023-03-26T12:22:28.969Z,1.40
2023-03-26T12:25:13.638Z,2.40
2023-03-26T12:27:42.934Z,1.60
2023-03-26T12:30:11.428Z,1.90
2023-03-26T12:32:46.478Z,2.20
2023-03-26T12:35:18.640Z,3.30
2023-03-26T12:37:45.969Z,4.00
2023-03-26T12:44:55.184Z,2.90
2023-03-26T12:45:40.844Z,3.10
2023-03-26T12:48:13.308Z,3.60
2023-03-26T12:51:03.226Z,2.40
2023-03-26T12:53:32.940Z,2.60
2023-03-26T12:56:21.217Z,2.40
2023-03-26T12:58:55.556Z,2.90
2023-03-26T13:01:22.563Z,2.30
2023-03-26T13:04:05.317Z,2.40
2023-03-26T13:06:59.531Z,2.50
2023-03-26T13:10:01.186Z,2.70
2023-03-26T13:12:40.323Z,2.80
2023-03-26T13:15:12.969Z,2.30
2023-03-26T13:17:44.643Z,5.30
2023-03-26T13:20:11.883Z,2.80
2023-03-26T13:22:48.646Z,4.90
2023-03-26T13:25:23.266Z,6.40
2023-03-26T13:27:55.870Z,5.40
2023-03-26T13:30:28.014Z,4.20
2023-03-26T13:33:13.514Z,3.30
2023-03-26T13:35:49.871Z,3.60
2023-03-26T13:38:40.752Z,6.20
2023-03-26T13:41:42.780Z,4.20
2023-03-26T13:44:15.543Z,6.10
2023-03-26T13:46:52.835Z,4.40
2023-03-26T13:49:41.071Z,6.30
2023-03-26T13:52:13.705Z,7.20
2023-03-26T13:54:49.079Z,3.30
2023-03-26T13:57:29.072Z,3.00
2023-03-26T14:00:12.673Z,1.20
2023-03-26T14:02:40.850Z,4.90
2023-03-26T14:05:14.594Z,6.20
2023-03-26T14:07:46.203Z,4.00
2023-03-26T14:10:15.743Z,6.50
2023-03-26T14:12:54.661Z,3.20
2023-03-26T14:15:27.593Z,2.40
2023-03-26T14:18:21.888Z,3.00
2023-03-26T14:20:56.255Z,5.30
2023-03-26T14:23:42.198Z,4.90
2023-03-26T14:26:27.480Z,2.80
2023-03-26T14:28:57.258Z,3.40
2023-03-26T14:31:31.028Z,3.60
2023-03-26T14:34:02.116Z,2.70
2023-03-26T14:36:46.006Z,4.60
2023-03-26T14:39:12.317Z,4.00
2023-03-26T14:41:48.355Z,8.80
2023-03-26T14:44:20.655Z,7.10
2023-03-26T14:46:52.973Z,4.40
2023-03-26T14:49:43.025Z,4.40
2023-03-26T14:52:13.124Z,10.20
2023-03-26T14:54:43.236Z,4.80
2023-03-26T14:57:28.557Z,2.70
2023-03-26T14:59:58.829Z,3.00
2023-03-26T15:02:44.002Z,2.30
2023-03-26T15:05:30.000Z,4.50
2023-03-26T15:08:18.331Z,4.10
2023-03-26T15:10:46.556Z,4.50
2023-03-26T15:13:12.995Z,4.80
2023-03-26T15:16:05.862Z,3.60
2023-03-26T15:18:35.568Z,2.50
2023-03-26T15:21:01.921Z,3.70
2023-03-26T15:23:57.638Z,4.50
2023-03-26T15:26:43.488Z,4.60
2023-03-26T15:29:29.807Z,4.20
2023-03-26T15:32:15.482Z,3.20
2023-03-26T15:34:50.992Z,3.90
2023-03-26T15:37:40.740Z,2.80
2023-03-26T15:40:23.403Z,4.30
2023-03-26T15:43:22.197Z,2.30
2023-03-26T15:46:07.461Z,4.00
2023-03-26T15:48:57.249Z,3.20
2023-03-26T15:51:28.527Z,3.00
2023-03-26T15:53:55.576Z,3.10
2023-03-26T15:56:23.163Z,11.10
2023-03-26T15:59:02.323Z,4.60
2023-03-26T16:01:33.231Z,2.80
2023-03-26T16:03:59.888Z,3.00
2023-03-26T16:06:27.418Z,5.30
2023-03-26T16:09:09.983Z,5.70
2023-03-26T16:11:44.415Z,8.20
2023-03-26T16:14:31.429Z,5.90
2023-03-26T16:19:30.771Z,8.40
2023-03-26T16:21:57.754Z,5.40
2023-03-26T16:24:26.418Z,5.60
2023-03-26T16:26:56.568Z,4.00
2023-03-26T16:29:28.280Z,3.60
2023-03-26T16:32:15.366Z,5.10
2023-03-26T16:37:35.842Z,3.90
2023-03-26T16:40:26.552Z,13.00
2023-03-26T16:42:56.103Z,12.50
2023-03-26T16:45:43.004Z,22.50
2023-03-26T16:48:19.032Z,6.50
2023-03-26T16:50:52.722Z,4.10
2023-03-26T16:53:41.182Z,26.70
2023-03-26T16:56:13.912Z,19.70
2023-03-26T16:58:55.367Z,22.10
2023-03-26T17:01:34.959Z,15.60
2023-03-26T17:04:08.762Z,10.70
2023-03-26T17:06:56.216Z,13.40
2023-03-26T17:09:26.055Z,20.00
2023-03-26T17:12:02.194Z,15.40
2023-03-26T17:14:29.495Z,7.90
2023-03-26T17:17:02.147Z,7.90
2023-03-26T17:19:35.219Z,8.10
2023-03-26T17:22:31.343Z,8.10
2023-03-26T17:25:16.705Z,10.00
2023-03-26T17:27:44.006Z,9.60
2023-03-26T17:33:01.214Z,50.30
2023-03-26T17:35:44.655Z,26.20
2023-03-26T17:38:17.674Z,33.60
2023-03-26T17:40:47.538Z,28.00
2023-03-26T17:43:49.941Z,21.40
2023-03-26T17:46:49.390Z,11.00
2023-03-26T17:49:24.273Z,9.90
2023-03-26T17:51:58.133Z,38.40
2023-03-26T17:54:28.043Z,27.70
2023-03-26T17:56:55.293Z,16.90
2023-03-26T17:59:23.770Z,55.30
2023-03-26T18:01:55.532Z,23.80
2023-03-26T18:04:31.958Z,23.50
2023-03-26T18:07:01.623Z,16.10
2023-03-26T18:10:08.945Z,15.20
2023-03-26T18:12:44.659Z,18.80
2023-03-26T18:15:14.248Z,11.90
2023-03-26T18:17:43.018Z,14.40
2023-03-26T18:20:20.012Z,11.20
2023-03-26T18:22:47.896Z,7.80
2023-03-26T18:25:25.705Z,7.90
2023-03-26T18:27:53.552Z,5.70
2023-03-26T18:30:25.960Z,5.90
2023-03-26T18:33:00.522Z,6.40
2023-03-26T18:35:36.960Z,6.70
2023-03-26T18:38:05.557Z,8.30
2023-03-26T18:40:33.854Z,9.30
2023-03-26T18:43:01.102Z,11.70
2023-03-26T18:45:29.534Z,12.90
2023-03-26T18:48:00.729Z,13.90
2023-03-26T18:50:29.520Z,13.40
2023-03-26T18:53:00.473Z,16.90
2023-03-26T18:55:29.023Z,16.90
2023-03-26T18:57:58.419Z,13.10
2023-03-26T19:00:30.359Z,16.80
2023-03-26T19:03:02.742Z,7.10
2023-03-26T19:05:31.619Z,11.00
2023-03-26T19:08:02.820Z,15.50
2023-03-26T19:10:30.977Z,14.00
2023-03-26T19:12:58.514Z,12.50
2023-03-26T19:15:26.657Z,11.50
2023-03-26T19:18:03.402Z,13.40
2023-03-26T19:20:35.454Z,12.40
2023-03-26T19:23:03.085Z,10.40
2023-03-26T19:27:57.914Z,14.50
2023-03-26T19:30:28.730Z,13.70
2023-03-26T19:32:56.155Z,14.80
2023-03-26T19:35:40.420Z,12.60
2023-03-26T19:38:18.891Z,15.60
2023-03-26T19:40:45.792Z,12.90
2023-03-26T19:43:13.192Z,11.60
2023-03-26T19:48:45.661Z,13.00
2023-03-26T19:51:24.997Z,12.30
2023-03-26T19:53:53.314Z,13.30
2023-03-26T19:56:21.237Z,13.50
2023-03-26T19:58:49.498Z,19.50
2023-03-26T20:01:17.431Z,14.00
2023-03-26T20:03:46.424Z,15.30
2023-03-26T20:06:14.810Z,15.40
2023-03-26T20:08:42.918Z,27.80
2023-03-26T20:11:16.590Z,48.10
2023-03-26T20:13:43.076Z,36.90
2023-03-26T20:16:16.495Z,18.60
2023-03-26T20:18:43.126Z,17.20
2023-03-26T20:21:11.007Z,17.40
2023-03-26T20:23:38.728Z,16.80
2023-03-26T20:26:05.225Z,16.90
2023-03-26T20:28:38.728Z,16.30
2023-03-26T20:31:18.775Z,13.80
2023-03-26T20:33:45.695Z,17.70
2023-03-26T20:36:34.007Z,14.40
2023-03-26T20:39:05.130Z,17.80
2023-03-26T20:41:34.889Z,12.70
2023-03-26T20:46:31.345Z,20.30
2023-03-26T20:48:59.106Z,16.40
2023-03-26T20:51:27.357Z,14.20
2023-03-26T20:53:54.033Z,19.40
2023-03-26T20:56:23.806Z,15.30
2023-03-26T20:59:03.501Z,13.60
2023-03-26T21:01:37.476Z,12.80
2023-03-26T21:04:04.020Z,12.10
2023-03-26T21:06:31.406Z,12.30
2023-03-26T21:08:58.460Z,12.60
2023-03-26T21:11:26.642Z,13.60
2023-03-26T21:13:54.595Z,13.80
2023-03-26T21:16:22.215Z,13.00
2023-03-26T21:18:49.649Z,13.70
2023-03-26T21:21:21.360Z,14.70
2023-03-26T21:23:59.399Z,12.60
2023-03-26T21:26:30.862Z,14.20
2023-03-26T21:28:59.872Z,17.50
2023-03-26T21:31:30.334Z,17.20
2023-03-26T21:33:57.464Z,17.40
2023-03-26T21:36:24.124Z,19.00
2023-03-26T21:38:53.951Z,19.60
2023-03-26T21:41:23.075Z,17.00
2023-03-26T21:43:49.895Z,17.60
2023-03-26T21:46:16.772Z,20.00
2023-03-26T21:48:43.908Z,18.40
2023-03-26T21:51:14.142Z,19.60
2023-03-26T21:53:41.754Z,18.50
2023-03-26T21:56:13.999Z,21.00
2023-03-26T21:58:47.170Z,20.60
2023-03-26T22:01:25.292Z,17.10
2023-03-26T22:04:00.295Z,16.70
2023-03-26T22:06:44.965Z,15.70
2023-03-26T22:09:12.816Z,14.80
2023-03-26T22:11:41.496Z,15.80
2023-03-26T22:14:08.011Z,15.70
2023-03-26T22:16:34.675Z,14.50
2023-03-26T22:19:01.207Z,13.90
2023-03-26T22:21:27.633Z,12.40
2023-03-26T22:23:54.412Z,13.60
2023-03-26T22:26:22.556Z,14.00
2023-03-26T22:28:49.883Z,14.10
2023-03-26T22:31:16.995Z,15.60
2023-03-26T22:36:22.960Z,14.50
2023-03-26T22:38:53.951Z,13.30
2023-03-26T22:41:21.208Z,14.50
2023-03-26T22:43:51.696Z,15.10
2023-03-26T22:46:19.048Z,15.50
2023-03-26T22:48:47.646Z,15.70
2023-03-26T22:51:14.716Z,15.30
2023-03-26T22:53:41.659Z,14.00
2023-03-26T22:56:08.610Z,11.30
2023-03-26T22:58:35.068Z,15.30
2023-03-26T23:01:10.803Z,13.80
2023-03-26T23:03:38.657Z,20.60
2023-03-26T23:06:06.930Z,23.70
2023-03-26T23:08:34.404Z,18.70
2023-03-26T23:11:01.480Z,23.70
2023-03-26T23:13:27.863Z,24.10
2023-03-26T23:15:56.428Z,19.50
2023-03-26T23:18:23.455Z,17.30
2023-03-26T23:20:52.075Z,17.40
2023-03-26T23:23:23.539Z,18.90
2023-03-26T23:25:51.271Z,15.50
2023-03-26T23:28:17.950Z,19.70
2023-03-26T23:30:47.066Z,18.00
2023-03-26T23:33:13.763Z,15.70
2023-03-26T23:35:43.523Z,15.50
2023-03-26T23:38:12.287Z,17.10
2023-03-26T23:40:40.240Z,16.90
2023-03-26T23:43:06.755Z,18.50
2023-03-26T23:45:33.268Z,18.30
2023-03-26T23:48:01.654Z,24.30
2023-03-26T23:50:32.506Z,25.90
2023-03-26T23:52:59.864Z,25.00
2023-03-26T23:55:26.836Z,26.50
2023-03-26T23:57:53.973Z,26.30
